createdAt,value
2022-10-05T00:01:52.441Z,100.00
2022-10-05T00:04:21.941Z,100.00
2022-10-05T00:07:17.316Z,100.00
2022-10-05T00:09:55.291Z,100.00
2022-10-05T00:12:22.612Z,100.00
2022-10-05T00:14:51.076Z,100.00
2022-10-05T00:17:26.233Z,100.00
2022-10-05T00:19:53.945Z,100.00
2022-10-05T00:22:23.441Z,100.00
2022-10-05T00:24:55.028Z,100.00
2022-10-05T00:27:24.636Z,100.00
2022-10-05T00:29:53.706Z,100.00
2022-10-05T00:32:20.089Z,100.00
2022-10-05T00:34:46.701Z,100.00
2022-10-05T00:37:14.173Z,100.00
2022-10-05T00:39:42.139Z,100.00
2022-10-05T00:42:30.296Z,100.00
2022-10-05T00:45:30.787Z,100.00
2022-10-05T00:48:26.711Z,100.00
2022-10-05T00:51:12.764Z,100.00
2022-10-05T00:53:59.419Z,100.00
2022-10-05T00:56:51.746Z,100.00
2022-10-05T00:59:37.016Z,100.00
2022-10-05T01:02:18.252Z,100.00
2022-10-05T01:05:07.638Z,100.00
2022-10-05T01:07:49.755Z,100.00
2022-10-05T01:10:49.853Z,100.00
2022-10-05T01:13:41.659Z,100.00
2022-10-05T01:16:44.200Z,100.00
2022-10-05T01:19:21.475Z,100.00
2022-10-05T01:22:22.079Z,100.00
2022-10-05T01:25:17.912Z,100.00
2022-10-05T01:27:47.244Z,100.00
2022-10-05T01:30:23.388Z,100.00
2022-10-05T01:32:58.553Z,100.00
2022-10-05T01:35:33.969Z,100.00
2022-10-05T01:38:25.423Z,100.00
2022-10-05T01:40:51.691Z,100.00
2022-10-05T01:43:39.296Z,100.00
2022-10-05T01:46:37.879Z,100.00
2022-10-05T01:49:34.734Z,100.00
2022-10-05T01:52:18.960Z,100.00
2022-10-05T01:55:04.402Z,100.00
2022-10-05T01:57:46.155Z,100.00
2022-10-05T02:00:19.579Z,100.00
2022-10-05T02:02:50.134Z,100.00
2022-10-05T02:05:21.487Z,100.00
2022-10-05T02:08:03.533Z,100.00
2022-10-05T02:10:38.265Z,100.00
2022-10-05T02:13:24.535Z,100.00
2022-10-05T02:15:56.413Z,100.00
2022-10-05T02:18:35.550Z,100.00
2022-10-05T02:21:05.247Z,100.00
2022-10-05T02:23:36.185Z,100.00
2022-10-05T02:26:03.312Z,100.00
2022-10-05T02:28:38.233Z,100.00
2022-10-05T02:31:12.683Z,100.00
2022-10-05T02:33:39.483Z,100.00
2022-10-05T02:36:28.032Z,100.00
2022-10-05T02:39:14.828Z,100.00
2022-10-05T02:41:53.152Z,100.00
2022-10-05T02:44:45.614Z,100.00
2022-10-05T02:47:23.761Z,100.00
2022-10-05T02:50:12.140Z,100.00
2022-10-05T02:53:06.890Z,100.00
2022-10-05T02:55:52.107Z,100.00
2022-10-05T02:58:23.379Z,100.00
2022-10-05T03:00:58.945Z,100.00
2022-10-05T03:03:41.607Z,100.00
2022-10-05T03:06:25.679Z,100.00
2022-10-05T03:09:03.923Z,100.00
2022-10-05T03:11:46.666Z,100.00
2022-10-05T03:14:30.207Z,100.00
2022-10-05T03:17:18.048Z,100.00
2022-10-05T03:20:23.443Z,100.00
2022-10-05T03:22:56.936Z,100.00
2022-10-05T03:25:54.025Z,100.00
2022-10-05T03:28:36.094Z,100.00
2022-10-05T03:31:17.938Z,100.00
2022-10-05T03:33:53.481Z,100.00
2022-10-05T03:36:55.199Z,100.00
2022-10-05T03:39:39.020Z,100.00
2022-10-05T03:42:15.307Z,100.00
2022-10-05T03:45:00.515Z,100.00
2022-10-05T03:47:45.323Z,100.00
2022-10-05T03:50:44.599Z,100.00
2022-10-05T03:53:22.028Z,100.00
2022-10-05T03:56:12.583Z,100.00
2022-10-05T03:58:54.472Z,100.00
2022-10-05T04:01:36.179Z,100.00
2022-10-05T04:04:07.160Z,100.00
2022-10-05T04:06:39.051Z,100.00
2022-10-05T04:09:30.156Z,100.00
2022-10-05T04:12:15.564Z,100.00
2022-10-05T04:14:47.534Z,100.00
2022-10-05T04:17:17.952Z,100.00
2022-10-05T04:19:50.974Z,100.00
2022-10-05T04:22:25.296Z,100.00
2022-10-05T04:24:58.371Z,100.00
2022-10-05T04:27:33.383Z,100.00
2022-10-05T04:30:10.124Z,100.00
2022-10-05T04:32:43.746Z,100.00
2022-10-05T04:35:24.606Z,100.00
2022-10-05T04:38:29.225Z,100.00
2022-10-05T04:41:21.663Z,100.00
2022-10-05T04:44:19.596Z,100.00
2022-10-05T04:47:12.354Z,100.00
2022-10-05T04:49:57.005Z,100.00
2022-10-05T04:53:02.105Z,100.00
2022-10-05T04:55:53.078Z,100.00
2022-10-05T04:58:42.521Z,100.00
2022-10-05T05:01:28.977Z,100.00
2022-10-05T05:04:29.550Z,100.00
2022-10-05T05:07:11.719Z,100.00
2022-10-05T05:10:15.045Z,100.00
2022-10-05T05:12:47.649Z,100.00
2022-10-05T05:15:26.293Z,100.00
2022-10-05T05:18:29.915Z,100.00
2022-10-05T05:21:08.350Z,100.00
2022-10-05T05:23:44.246Z,100.00
2022-10-05T05:26:28.728Z,100.00
2022-10-05T05:29:23.332Z,100.00
2022-10-05T05:31:53.225Z,100.00
2022-10-05T05:34:32.288Z,100.00
2022-10-05T05:37:22.974Z,100.00
2022-10-05T05:40:03.776Z,100.00
2022-10-05T05:42:50.633Z,100.00
2022-10-05T05:45:41.748Z,100.00
2022-10-05T05:48:22.041Z,100.00
2022-10-05T05:51:39.359Z,100.00
2022-10-05T05:54:29.631Z,100.00
2022-10-05T05:57:13.064Z,100.00
2022-10-05T05:59:52.105Z,100.00
2022-10-05T06:02:25.460Z,100.00
2022-10-05T06:05:10.809Z,100.00
2022-10-05T06:07:38.337Z,100.00
2022-10-05T06:10:19.630Z,100.00
2022-10-05T06:13:01.895Z,100.00
2022-10-05T06:15:36.394Z,100.00
2022-10-05T06:18:11.187Z,100.00
2022-10-05T06:20:48.960Z,100.00
2022-10-05T06:23:23.266Z,100.00
2022-10-05T06:26:10.808Z,100.00
2022-10-05T06:28:39.085Z,100.00
2022-10-05T06:31:29.738Z,100.00
2022-10-05T06:34:16.550Z,100.00
2022-10-05T06:36:50.808Z,100.00
2022-10-05T06:39:38.296Z,100.00
2022-10-05T06:42:26.271Z,100.00
2022-10-05T06:45:48.455Z,100.00
2022-10-05T06:49:02.423Z,100.00
2022-10-05T06:52:32.239Z,100.00
2022-10-05T06:55:34.125Z,100.00
2022-10-05T06:58:34.655Z,100.00
2022-10-05T07:01:11.175Z,100.00
2022-10-05T07:04:09.533Z,100.00
2022-10-05T07:06:49.152Z,100.00
2022-10-05T07:09:21.237Z,100.00
2022-10-05T07:12:08.436Z,100.00
2022-10-05T07:15:03.411Z,100.00
2022-10-05T07:17:57.113Z,100.00
2022-10-05T07:20:32.561Z,100.00
2022-10-05T07:23:19.683Z,100.00
2022-10-05T07:26:01.726Z,100.00
2022-10-05T07:28:34.760Z,100.00
2022-10-05T07:31:17.001Z,100.00
2022-10-05T07:34:07.068Z,100.00
2022-10-05T07:36:59.683Z,100.00
2022-10-05T07:39:58.999Z,100.00
2022-10-05T07:43:06.890Z,100.00
2022-10-05T07:45:46.680Z,100.00
2022-10-05T07:48:26.242Z,100.00
2022-10-05T07:51:23.868Z,100.00
2022-10-05T07:54:16.637Z,100.00
2022-10-05T07:56:49.001Z,100.00
2022-10-05T07:59:29.879Z,100.00
2022-10-05T08:02:07.333Z,100.00
2022-10-05T08:04:41.964Z,100.00
2022-10-05T08:07:15.641Z,100.00
2022-10-05T08:09:58.328Z,100.00
2022-10-05T08:12:43.441Z,100.00
2022-10-05T08:15:20.477Z,100.00
2022-10-05T08:17:59.324Z,100.00
2022-10-05T08:20:39.184Z,100.00
2022-10-05T08:23:17.529Z,100.00
2022-10-05T08:26:01.262Z,100.00
2022-10-05T08:28:34.054Z,100.00
2022-10-05T08:31:10.850Z,100.00
2022-10-05T08:33:53.935Z,100.00
2022-10-05T08:36:28.950Z,100.00
2022-10-05T08:39:03.951Z,100.00
2022-10-05T08:41:58.807Z,100.00
2022-10-05T08:44:58.051Z,100.00
2022-10-05T08:47:39.476Z,100.00
2022-10-05T08:50:31.086Z,100.00
2022-10-05T08:53:16.315Z,100.00
2022-10-05T08:56:09.165Z,100.00
2022-10-05T08:58:53.867Z,100.00
2022-10-05T09:01:32.990Z,100.00
2022-10-05T09:04:24.831Z,100.00
2022-10-05T09:07:15.272Z,100.00
2022-10-05T09:10:15.769Z,100.00
2022-10-05T09:12:54.230Z,100.00
2022-10-05T09:15:39.340Z,100.00
2022-10-05T09:18:42.951Z,100.00
2022-10-05T09:21:18.444Z,100.00
2022-10-05T09:23:57.389Z,100.00
2022-10-05T09:26:45.772Z,100.00
2022-10-05T09:29:49.881Z,100.00
2022-10-05T09:32:51.762Z,100.00
2022-10-05T09:35:47.588Z,100.00
2022-10-05T09:38:25.410Z,100.00
2022-10-05T09:41:10.751Z,100.00
2022-10-05T09:44:12.743Z,100.00
2022-10-05T09:47:17.787Z,100.00
2022-10-05T09:50:00.965Z,100.00
2022-10-05T09:52:27.353Z,100.00
2022-10-05T09:55:16.558Z,100.00
2022-10-05T09:57:55.149Z,100.00
2022-10-05T10:00:28.041Z,100.00
2022-10-05T10:03:24.822Z,100.00
2022-10-05T10:06:24.437Z,100.00
2022-10-05T10:09:29.009Z,100.00
2022-10-05T10:12:17.018Z,100.00
2022-10-05T10:15:28.436Z,100.00
2022-10-05T10:18:23.805Z,100.00
2022-10-05T10:21:04.761Z,100.00
2022-10-05T10:24:08.850Z,100.00
2022-10-05T10:26:54.724Z,100.00
2022-10-05T10:29:45.867Z,100.00
2022-10-05T10:32:20.727Z,100.00
2022-10-05T10:35:22.019Z,100.00
2022-10-05T10:38:23.633Z,100.00
2022-10-05T10:41:02.191Z,100.00
2022-10-05T10:43:34.634Z,100.00
2022-10-05T10:46:39.372Z,99.78
2022-10-05T10:49:43.283Z,97.11
2022-10-05T10:52:19.859Z,98.16
2022-10-05T10:55:15.676Z,96.58
2022-10-05T10:58:04.143Z,95.81
2022-10-05T11:00:40.670Z,94.58
2022-10-05T11:03:40.757Z,93.44
2022-10-05T11:06:28.947Z,92.32
2022-10-05T11:09:03.069Z,92.83
2022-10-05T11:11:49.259Z,93.58
2022-10-05T11:14:40.104Z,89.91
2022-10-05T11:17:18.413Z,90.19
2022-10-05T11:20:06.771Z,91.71
2022-10-05T11:22:51.876Z,90.80
2022-10-05T11:25:56.280Z,89.61
2022-10-05T11:28:40.496Z,90.83
2022-10-05T11:31:25.587Z,89.32
2022-10-05T11:34:29.092Z,87.38
2022-10-05T11:37:14.570Z,86.14
2022-10-05T11:39:49.861Z,85.80
2022-10-05T11:42:50.013Z,86.33
2022-10-05T11:45:23.201Z,86.43
2022-10-05T11:47:58.597Z,83.96
2022-10-05T11:50:35.259Z,85.81
2022-10-05T11:53:12.012Z,83.77
2022-10-05T11:56:03.005Z,81.73
2022-10-05T11:58:36.471Z,82.08
2022-10-05T12:01:21.945Z,83.48
2022-10-05T12:04:03.324Z,82.71
2022-10-05T12:06:43.413Z,85.42
2022-10-05T12:09:36.990Z,85.91
2022-10-05T12:12:15.511Z,86.50
2022-10-05T12:14:54.126Z,86.94
2022-10-05T12:18:04.571Z,85.85
2022-10-05T12:20:53.245Z,87.17
2022-10-05T12:23:34.793Z,89.19
2022-10-05T12:26:05.658Z,89.24
2022-10-05T12:28:43.291Z,89.83
2022-10-05T12:31:15.633Z,90.76
2022-10-05T12:33:51.188Z,89.84
2022-10-05T12:36:52.430Z,91.55
2022-10-05T12:39:40.763Z,89.96
2022-10-05T12:42:22.007Z,90.96
2022-10-05T12:45:17.991Z,89.90
2022-10-05T12:47:59.031Z,89.73
2022-10-05T12:50:36.581Z,89.67
2022-10-05T12:53:30.272Z,87.97
2022-10-05T12:56:41.412Z,87.47
2022-10-05T12:59:07.725Z,87.39
2022-10-05T13:01:46.724Z,87.57
2022-10-05T13:04:25.236Z,87.39
2022-10-05T13:07:07.571Z,88.18
2022-10-05T13:09:44.762Z,88.55
2022-10-05T13:12:29.710Z,87.51
2022-10-05T13:15:14.646Z,87.12
2022-10-05T13:17:57.382Z,87.52
2022-10-05T13:20:31.824Z,90.48
2022-10-05T13:23:18.424Z,92.45
2022-10-05T13:25:56.948Z,93.49
2022-10-05T13:28:37.508Z,92.18
2022-10-05T13:31:15.123Z,93.16
2022-10-05T13:33:53.752Z,93.16
2022-10-05T13:36:53.522Z,91.29
2022-10-05T13:39:53.354Z,91.57
2022-10-05T13:42:45.911Z,91.88
2022-10-05T13:45:23.548Z,91.01
2022-10-05T13:47:58.341Z,90.11
2022-10-05T13:50:35.181Z,90.51
2022-10-05T13:53:29.517Z,89.50
2022-10-05T13:55:55.843Z,89.30
2022-10-05T13:58:24.904Z,89.22
2022-10-05T14:00:57.964Z,88.46
2022-10-05T14:03:37.196Z,88.78
2022-10-05T14:06:12.135Z,88.55
2022-10-05T14:08:54.360Z,89.35
2022-10-05T14:11:31.388Z,90.85
2022-10-05T14:14:25.690Z,91.78
2022-10-05T14:16:55.952Z,92.44
2022-10-05T14:19:40.857Z,91.97
2022-10-05T14:22:24.673Z,92.91
2022-10-05T14:25:02.836Z,92.85
2022-10-05T14:27:33.031Z,92.18
2022-10-05T14:30:16.846Z,91.38
2022-10-05T14:32:56.108Z,91.89
2022-10-05T14:35:30.208Z,90.81
2022-10-05T14:38:00.350Z,90.89
2022-10-05T14:40:36.116Z,92.12
2022-10-05T14:43:32.596Z,93.68
2022-10-05T14:46:23.410Z,93.96
2022-10-05T14:49:23.109Z,95.67
2022-10-05T14:51:54.152Z,96.18
2022-10-05T14:54:25.442Z,96.15
2022-10-05T14:57:04.448Z,96.54
2022-10-05T14:59:41.044Z,95.68
2022-10-05T15:02:47.951Z,96.59
2022-10-05T15:05:26.679Z,96.32
2022-10-05T15:08:01.219Z,96.22
2022-10-05T15:10:42.774Z,96.75
2022-10-05T15:13:15.505Z,96.50
2022-10-05T15:15:54.535Z,96.88
2022-10-05T15:18:49.920Z,97.80
2022-10-05T15:21:23.715Z,98.14
2022-10-05T15:23:57.315Z,98.19
2022-10-05T15:26:33.057Z,98.27
2022-10-05T15:29:07.923Z,99.85
2022-10-05T15:31:49.988Z,99.80
2022-10-05T15:34:27.093Z,100.00
2022-10-05T15:37:07.648Z,100.00
2022-10-05T15:39:35.066Z,100.00
2022-10-05T15:42:14.534Z,99.94
2022-10-05T15:45:06.348Z,99.53
2022-10-05T15:47:59.358Z,99.68
2022-10-05T15:50:29.593Z,99.81
2022-10-05T15:53:13.031Z,98.40
2022-10-05T15:55:46.988Z,98.84
2022-10-05T15:58:35.548Z,99.64
2022-10-05T16:01:11.032Z,99.71
2022-10-05T16:03:59.111Z,100.00
2022-10-05T16:06:56.807Z,99.90
2022-10-05T16:09:32.170Z,100.00
2022-10-05T16:12:10.675Z,100.00
2022-10-05T16:14:53.339Z,100.00
2022-10-05T16:17:43.632Z,100.00
2022-10-05T16:20:41.402Z,100.00
2022-10-05T16:23:28.289Z,100.00
2022-10-05T16:26:09.364Z,100.00
2022-10-05T16:28:50.332Z,100.00
2022-10-05T16:31:40.177Z,100.00
2022-10-05T16:34:29.521Z,100.00
2022-10-05T16:37:11.210Z,100.00
2022-10-05T16:39:49.920Z,100.00
2022-10-05T16:42:43.941Z,100.00
2022-10-05T16:45:44.783Z,100.00
2022-10-05T16:48:26.247Z,100.00
2022-10-05T16:51:16.265Z,100.00
2022-10-05T16:54:01.167Z,100.00
2022-10-05T16:56:39.637Z,100.00
2022-10-05T16:59:27.816Z,100.00
2022-10-05T17:02:16.473Z,100.00
2022-10-05T17:05:30.152Z,100.00
2022-10-05T17:08:15.207Z,100.00
2022-10-05T17:11:06.776Z,100.00
2022-10-05T17:13:43.381Z,100.00
2022-10-05T17:16:42.976Z,100.00
2022-10-05T17:19:32.913Z,100.00
2022-10-05T17:22:07.049Z,100.00
2022-10-05T17:24:49.023Z,100.00
2022-10-05T17:27:17.785Z,100.00
2022-10-05T17:30:15.066Z,100.00
2022-10-05T17:33:04.513Z,100.00
2022-10-05T17:35:51.752Z,100.00
2022-10-05T17:38:30.348Z,100.00
2022-10-05T17:40:59.725Z,100.00
2022-10-05T17:43:28.558Z,100.00
2022-10-05T17:46:00.992Z,100.00
2022-10-05T17:48:49.677Z,100.00
2022-10-05T17:51:47.108Z,100.00
2022-10-05T17:55:10.958Z,100.00
2022-10-05T17:57:39.471Z,100.00
2022-10-05T18:00:34.945Z,100.00
2022-10-05T18:03:33.681Z,100.00
2022-10-05T18:06:37.207Z,100.00
2022-10-05T18:09:42.445Z,100.00
2022-10-05T18:12:18.066Z,100.00
2022-10-05T18:15:07.032Z,100.00
2022-10-05T18:17:51.355Z,100.00
2022-10-05T18:20:28.625Z,100.00
2022-10-05T18:23:07.145Z,100.00
2022-10-05T18:25:33.439Z,100.00
2022-10-05T18:28:18.319Z,100.00
2022-10-05T18:31:12.024Z,100.00
2022-10-05T18:33:59.511Z,100.00
2022-10-05T18:37:07.092Z,100.00
2022-10-05T18:39:58.164Z,100.00
2022-10-05T18:42:33.401Z,100.00
2022-10-05T18:45:24.116Z,100.00
2022-10-05T18:47:59.456Z,100.00
2022-10-05T18:50:48.600Z,100.00
2022-10-05T18:53:33.157Z,100.00
2022-10-05T18:56:23.721Z,100.00
2022-10-05T18:59:14.488Z,100.00
2022-10-05T19:01:57.959Z,100.00
2022-10-05T19:04:32.123Z,100.00
2022-10-05T19:07:07.438Z,100.00
2022-10-05T19:10:13.065Z,100.00
2022-10-05T19:13:08.799Z,100.00
2022-10-05T19:15:45.562Z,100.00
2022-10-05T19:18:41.340Z,100.00
2022-10-05T19:21:16.987Z,100.00
2022-10-05T19:23:58.867Z,100.00
2022-10-05T19:26:43.995Z,100.00
2022-10-05T19:29:27.004Z,100.00
2022-10-05T19:32:13.049Z,100.00
2022-10-05T19:34:47.120Z,100.00
2022-10-05T19:37:21.372Z,100.00
2022-10-05T19:39:58.557Z,100.00
2022-10-05T19:42:42.363Z,100.00
2022-10-05T19:45:27.593Z,100.00
2022-10-05T19:48:13.757Z,100.00
2022-10-05T19:50:53.013Z,100.00
2022-10-05T19:53:29.387Z,100.00
2022-10-05T19:55:56.041Z,100.00
2022-10-05T19:58:31.450Z,100.00
2022-10-05T20:01:00.711Z,100.00
2022-10-05T20:03:37.148Z,100.00
2022-10-05T20:06:08.701Z,100.00
2022-10-05T20:08:43.768Z,100.00
2022-10-05T20:11:11.639Z,100.00
2022-10-05T20:13:41.780Z,100.00
2022-10-05T20:16:36.224Z,100.00
2022-10-05T20:19:41.052Z,100.00
2022-10-05T20:22:46.206Z,100.00
2022-10-05T20:25:29.216Z,100.00
2022-10-05T20:27:56.479Z,100.00
2022-10-05T20:30:28.707Z,100.00
2022-10-05T20:33:00.524Z,100.00
2022-10-05T20:35:30.448Z,100.00
2022-10-05T20:38:00.792Z,100.00
2022-10-05T20:40:30.421Z,100.00
2022-10-05T20:42:58.399Z,100.00
2022-10-05T20:45:24.992Z,100.00
2022-10-05T20:47:51.340Z,100.00
2022-10-05T20:50:18.282Z,100.00
2022-10-05T20:52:44.649Z,100.00
2022-10-05T20:55:11.906Z,100.00
2022-10-05T20:57:41.778Z,100.00
2022-10-05T21:00:12.558Z,100.00
2022-10-05T21:02:39.344Z,100.00
2022-10-05T21:05:07.467Z,100.00
2022-10-05T21:07:34.125Z,100.00
2022-10-05T21:10:01.224Z,100.00
2022-10-05T21:12:27.764Z,100.00
2022-10-05T21:14:54.210Z,100.00
2022-10-05T21:17:20.551Z,100.00
2022-10-05T21:19:47.317Z,100.00
2022-10-05T21:22:13.670Z,100.00
2022-10-05T21:24:40.904Z,100.00
2022-10-05T21:27:07.680Z,100.00
2022-10-05T21:29:35.251Z,100.00
2022-10-05T21:32:01.760Z,100.00
2022-10-05T21:34:28.680Z,100.00
2022-10-05T21:36:55.361Z,100.00
2022-10-05T21:39:21.879Z,100.00
2022-10-05T21:41:49.806Z,100.00
2022-10-05T21:44:16.752Z,100.00
2022-10-05T21:46:43.657Z,100.00
2022-10-05T21:49:10.076Z,100.00
2022-10-05T21:51:37.039Z,100.00
2022-10-05T21:54:11.116Z,100.00
2022-10-05T21:56:42.752Z,100.00
2022-10-05T21:59:12.422Z,100.00
2022-10-05T22:01:38.876Z,100.00
2022-10-05T22:04:06.104Z,100.00
2022-10-05T22:06:34.310Z,100.00
2022-10-05T22:09:01.311Z,100.00
2022-10-05T22:11:28.926Z,100.00
2022-10-05T22:14:01.982Z,100.00
2022-10-05T22:16:34.557Z,100.00
2022-10-05T22:19:06.565Z,100.00
2022-10-05T22:21:37.846Z,100.00
2022-10-05T22:24:04.506Z,100.00
2022-10-05T22:29:20.419Z,100.00
2022-10-05T22:31:48.677Z,100.00
2022-10-05T22:34:16.494Z,100.00
2022-10-05T22:36:43.051Z,100.00
2022-10-05T22:39:09.431Z,100.00
2022-10-05T22:41:35.915Z,100.00
2022-10-05T22:44:02.679Z,100.00
2022-10-05T22:46:29.190Z,100.00
2022-10-05T22:48:55.604Z,100.00
2022-10-05T22:51:21.988Z,100.00
2022-10-05T22:53:48.341Z,100.00
2022-10-05T22:56:15.529Z,100.00
2022-10-05T22:58:43.188Z,100.00
2022-10-05T23:01:16.494Z,100.00
2022-10-05T23:03:43.719Z,100.00
2022-10-05T23:06:16.332Z,100.00
2022-10-05T23:08:43.725Z,100.00
2022-10-05T23:11:12.171Z,100.00
2022-10-05T23:13:38.940Z,100.00
2022-10-05T23:16:10.700Z,100.00
2022-10-05T23:18:38.032Z,100.00
2022-10-05T23:21:07.725Z,100.00
2022-10-05T23:23:38.325Z,100.00
2022-10-05T23:26:06.579Z,100.00
2022-10-05T23:28:33.752Z,100.00
2022-10-05T23:31:02.593Z,100.00
2022-10-05T23:33:30.764Z,100.00
2022-10-05T23:36:06.688Z,100.00
2022-10-05T23:38:34.985Z,100.00
2022-10-05T23:41:02.567Z,100.00
2022-10-05T23:43:29.468Z,100.00
2022-10-05T23:45:56.309Z,100.00
2022-10-05T23:48:22.840Z,100.00
2022-10-05T23:50:49.976Z,100.00
2022-10-05T23:53:17.734Z,100.00
2022-10-05T23:55:44.709Z,100.00
2022-10-05T23:58:11.974Z,100.00
